sensor_id;sensor_type;location;lat;lon;timestamp;P1;durP1;ratioP1;P2;durP2;ratioP2
13386;SDS011;6763;48.524;9.044;2023-05-20T00:00:44;4.93;;;1.73;;
13386;SDS011;6763;48.524;9.044;2023-05-20T00:03:12;2.88;;;1.70;;
13386;SDS011;6763;48.524;9.044;2023-05-20T00:05:37;2.58;;;2.33;;
13386;SDS011;6763;48.524;9.044;2023-05-20T00:08:03;3.75;;;2.00;;
13386;SDS011;6763;48.524;9.044;2023-05-20T00:10:31;2.90;;;1.98;;
13386;SDS011;6763;48.524;9.044;2023-05-20T00:13:06;3.63;;;2.20;;
13386;SDS011;6763;48.524;9.044;2023-05-20T00:15:34;2.47;;;1.98;;
13386;SDS011;6763;48.524;9.044;2023-05-20T00:18:05;2.30;;;1.80;;
13386;SDS011;6763;48.524;9.044;2023-05-20T00:20:34;3.63;;;2.08;;
13386;SDS011;6763;48.524;9.044;2023-05-20T00:22:59;2.53;;;2.13;;
13386;SDS011;6763;48.524;9.044;2023-05-20T00:25:25;2.50;;;1.80;;
13386;SDS011;6763;48.524;9.044;2023-05-20T00:27:50;1.90;;;1.70;;
13386;SDS011;6763;48.524;9.044;2023-05-20T00:30:16;2.95;;;1.73;;
13386;SDS011;6763;48.524;9.044;2023-05-20T00:32:41;1.65;;;1.55;;
13386;SDS011;6763;48.524;9.044;2023-05-20T00:35:07;2.28;;;1.90;;
13386;SDS011;6763;48.524;9.044;2023-05-20T00:37:37;2.58;;;1.77;;
13386;SDS011;6763;48.524;9.044;2023-05-20T00:40:07;4.43;;;2.25;;
13386;SDS011;6763;48.524;9.044;2023-05-20T00:42:34;2.47;;;1.88;;
13386;SDS011;6763;48.524;9.044;2023-05-20T00:45:04;2.78;;;2.00;;
13386;SDS011;6763;48.524;9.044;2023-05-20T00:47:39;1.70;;;1.60;;
13386;SDS011;6763;48.524;9.044;2023-05-20T00:50:08;1.92;;;1.80;;
13386;SDS011;6763;48.524;9.044;2023-05-20T00:52:37;2.80;;;1.80;;
13386;SDS011;6763;48.524;9.044;2023-05-20T00:55:03;2.70;;;1.85;;
13386;SDS011;6763;48.524;9.044;2023-05-20T00:57:31;2.03;;;1.70;;
13386;SDS011;6763;48.524;9.044;2023-05-20T00:59:57;2.20;;;2.00;;
13386;SDS011;6763;48.524;9.044;2023-05-20T01:02:32;5.10;;;2.22;;
13386;SDS011;6763;48.524;9.044;2023-05-20T01:05:00;2.88;;;2.13;;
13386;SDS011;6763;48.524;9.044;2023-05-20T01:07:30;3.28;;;2.20;;
13386;SDS011;6763;48.524;9.044;2023-05-20T01:09:55;2.47;;;2.15;;
13386;SDS011;6763;48.524;9.044;2023-05-20T01:12:22;3.03;;;1.80;;
13386;SDS011;6763;48.524;9.044;2023-05-20T01:14:55;2.58;;;2.00;;
13386;SDS011;6763;48.524;9.044;2023-05-20T01:17:25;3.80;;;1.70;;
13386;SDS011;6763;48.524;9.044;2023-05-20T01:19:55;7.47;;;2.30;;
13386;SDS011;6763;48.524;9.044;2023-05-20T01:22:27;2.00;;;1.83;;
13386;SDS011;6763;48.524;9.044;2023-05-20T01:24:55;2.80;;;1.98;;
13386;SDS011;6763;48.524;9.044;2023-05-20T01:27:21;2.63;;;2.00;;
13386;SDS011;6763;48.524;9.044;2023-05-20T01:29:48;1.60;;;1.48;;
13386;SDS011;6763;48.524;9.044;2023-05-20T01:32:19;4.55;;;1.95;;
13386;SDS011;6763;48.524;9.044;2023-05-20T01:34:50;2.10;;;1.70;;
13386;SDS011;6763;48.524;9.044;2023-05-20T01:37:17;3.00;;;1.80;;
13386;SDS011;6763;48.524;9.044;2023-05-20T01:39:43;4.95;;;1.95;;
13386;SDS011;6763;48.524;9.044;2023-05-20T01:42:10;4.07;;;1.88;;
13386;SDS011;6763;48.524;9.044;2023-05-20T01:44:38;2.55;;;1.55;;
13386;SDS011;6763;48.524;9.044;2023-05-20T01:47:04;1.63;;;1.42;;
13386;SDS011;6763;48.524;9.044;2023-05-20T01:49:29;1.90;;;1.80;;
13386;SDS011;6763;48.524;9.044;2023-05-20T01:51:55;1.77;;;1.60;;
13386;SDS011;6763;48.524;9.044;2023-05-20T01:54:21;3.17;;;1.90;;
13386;SDS011;6763;48.524;9.044;2023-05-20T01:56:47;3.20;;;1.80;;
13386;SDS011;6763;48.524;9.044;2023-05-20T01:59:12;3.20;;;1.50;;
13386;SDS011;6763;48.524;9.044;2023-05-20T02:01:37;4.13;;;1.92;;
13386;SDS011;6763;48.524;9.044;2023-05-20T02:04:03;2.75;;;2.42;;
13386;SDS011;6763;48.524;9.044;2023-05-20T02:06:28;2.38;;;2.17;;
13386;SDS011;6763;48.524;9.044;2023-05-20T02:08:54;5.88;;;2.28;;
13386;SDS011;6763;48.524;9.044;2023-05-20T02:11:19;4.57;;;2.60;;
13386;SDS011;6763;48.524;9.044;2023-05-20T02:13:48;2.33;;;2.13;;
13386;SDS011;6763;48.524;9.044;2023-05-20T02:16:14;3.67;;;2.50;;
13386;SDS011;6763;48.524;9.044;2023-05-20T02:18:39;4.07;;;2.47;;
13386;SDS011;6763;48.524;9.044;2023-05-20T02:21:07;3.60;;;2.45;;
13386;SDS011;6763;48.524;9.044;2023-05-20T02:23:32;5.50;;;2.45;;
13386;SDS011;6763;48.524;9.044;2023-05-20T02:26:01;2.60;;;2.03;;
13386;SDS011;6763;48.524;9.044;2023-05-20T02:28:27;3.40;;;2.45;;
13386;SDS011;6763;48.524;9.044;2023-05-20T02:31:05;4.13;;;2.55;;
13386;SDS011;6763;48.524;9.044;2023-05-20T02:33:33;2.75;;;2.00;;
13386;SDS011;6763;48.524;9.044;2023-05-20T02:36:04;3.17;;;2.30;;
13386;SDS011;6763;48.524;9.044;2023-05-20T02:38:32;2.70;;;2.22;;
13386;SDS011;6763;48.524;9.044;2023-05-20T02:40:57;2.40;;;2.13;;
13386;SDS011;6763;48.524;9.044;2023-05-20T02:43:24;3.33;;;2.00;;
13386;SDS011;6763;48.524;9.044;2023-05-20T02:45:51;2.22;;;1.98;;
13386;SDS011;6763;48.524;9.044;2023-05-20T02:48:16;2.30;;;1.88;;
13386;SDS011;6763;48.524;9.044;2023-05-20T02:50:42;2.15;;;1.90;;
13386;SDS011;6763;48.524;9.044;2023-05-20T02:53:09;1.95;;;1.77;;
13386;SDS011;6763;48.524;9.044;2023-05-20T02:55:35;2.30;;;2.03;;
13386;SDS011;6763;48.524;9.044;2023-05-20T02:58:01;3.17;;;2.35;;
13386;SDS011;6763;48.524;9.044;2023-05-20T03:00:29;2.65;;;1.80;;
13386;SDS011;6763;48.524;9.044;2023-05-20T03:02:55;2.67;;;2.33;;
13386;SDS011;6763;48.524;9.044;2023-05-20T03:05:21;3.00;;;2.20;;
13386;SDS011;6763;48.524;9.044;2023-05-20T03:07:46;2.40;;;2.20;;
13386;SDS011;6763;48.524;9.044;2023-05-20T03:10:12;3.75;;;2.30;;
13386;SDS011;6763;48.524;9.044;2023-05-20T03:12:38;2.45;;;2.25;;
13386;SDS011;6763;48.524;9.044;2023-05-20T03:15:04;2.90;;;2.33;;
13386;SDS011;6763;48.524;9.044;2023-05-20T03:17:30;2.65;;;2.40;;
13386;SDS011;6763;48.524;9.044;2023-05-20T03:19:55;3.10;;;1.88;;
13386;SDS011;6763;48.524;9.044;2023-05-20T03:22:20;2.45;;;2.20;;
13386;SDS011;6763;48.524;9.044;2023-05-20T03:24:46;2.42;;;2.15;;
13386;SDS011;6763;48.524;9.044;2023-05-20T03:27:13;2.67;;;2.00;;
13386;SDS011;6763;48.524;9.044;2023-05-20T03:29:41;3.25;;;1.90;;
13386;SDS011;6763;48.524;9.044;2023-05-20T03:32:06;2.25;;;2.05;;
13386;SDS011;6763;48.524;9.044;2023-05-20T03:34:32;3.22;;;2.50;;
13386;SDS011;6763;48.524;9.044;2023-05-20T03:37:04;2.30;;;2.10;;
13386;SDS011;6763;48.524;9.044;2023-05-20T03:39:30;3.67;;;2.35;;
13386;SDS011;6763;48.524;9.044;2023-05-20T03:41:55;4.10;;;2.22;;
13386;SDS011;6763;48.524;9.044;2023-05-20T03:44:20;3.35;;;2.50;;
13386;SDS011;6763;48.524;9.044;2023-05-20T03:46:46;2.83;;;1.95;;
13386;SDS011;6763;48.524;9.044;2023-05-20T03:49:11;4.63;;;2.13;;
13386;SDS011;6763;48.524;9.044;2023-05-20T03:51:42;2.95;;;2.50;;
13386;SDS011;6763;48.524;9.044;2023-05-20T03:54:14;2.50;;;2.30;;
13386;SDS011;6763;48.524;9.044;2023-05-20T03:56:43;3.42;;;2.72;;
13386;SDS011;6763;48.524;9.044;2023-05-20T03:59:10;3.83;;;2.28;;
13386;SDS011;6763;48.524;9.044;2023-05-20T04:01:36;3.00;;;2.67;;
13386;SDS011;6763;48.524;9.044;2023-05-20T04:04:02;2.85;;;2.22;;
13386;SDS011;6763;48.524;9.044;2023-05-20T04:06:27;3.25;;;2.40;;
13386;SDS011;6763;48.524;9.044;2023-05-20T04:08:52;4.30;;;2.58;;
13386;SDS011;6763;48.524;9.044;2023-05-20T04:11:18;3.38;;;2.38;;
13386;SDS011;6763;48.524;9.044;2023-05-20T04:13:43;3.55;;;2.13;;
13386;SDS011;6763;48.524;9.044;2023-05-20T04:16:09;2.28;;;2.00;;
13386;SDS011;6763;48.524;9.044;2023-05-20T04:18:34;2.65;;;2.17;;
13386;SDS011;6763;48.524;9.044;2023-05-20T04:21:02;2.50;;;2.03;;
13386;SDS011;6763;48.524;9.044;2023-05-20T04:23:29;3.28;;;2.42;;
13386;SDS011;6763;48.524;9.044;2023-05-20T04:25:54;2.65;;;2.42;;
13386;SDS011;6763;48.524;9.044;2023-05-20T04:28:19;3.88;;;2.60;;
13386;SDS011;6763;48.524;9.044;2023-05-20T04:30:48;5.60;;;2.22;;
13386;SDS011;6763;48.524;9.044;2023-05-20T04:33:14;2.22;;;2.03;;
13386;SDS011;6763;48.524;9.044;2023-05-20T04:35:40;3.03;;;2.30;;
13386;SDS011;6763;48.524;9.044;2023-05-20T04:38:05;3.40;;;2.72;;
13386;SDS011;6763;48.524;9.044;2023-05-20T04:40:32;3.38;;;2.13;;
13386;SDS011;6763;48.524;9.044;2023-05-20T04:43:00;2.45;;;2.25;;
13386;SDS011;6763;48.524;9.044;2023-05-20T04:45:26;2.70;;;2.47;;
13386;SDS011;6763;48.524;9.044;2023-05-20T04:47:51;3.65;;;2.25;;
13386;SDS011;6763;48.524;9.044;2023-05-20T04:50:17;6.30;;;3.20;;
13386;SDS011;6763;48.524;9.044;2023-05-20T04:52:42;3.13;;;2.28;;
13386;SDS011;6763;48.524;9.044;2023-05-20T04:55:09;6.75;;;2.28;;
13386;SDS011;6763;48.524;9.044;2023-05-20T04:57:35;3.55;;;2.55;;
13386;SDS011;6763;48.524;9.044;2023-05-20T05:00:02;4.53;;;2.90;;
13386;SDS011;6763;48.524;9.044;2023-05-20T05:02:31;2.85;;;2.33;;
13386;SDS011;6763;48.524;9.044;2023-05-20T05:04:56;4.88;;;3.08;;
13386;SDS011;6763;48.524;9.044;2023-05-20T05:07:21;2.55;;;2.17;;
13386;SDS011;6763;48.524;9.044;2023-05-20T05:09:47;3.58;;;2.42;;
13386;SDS011;6763;48.524;9.044;2023-05-20T05:12:12;3.63;;;2.78;;
13386;SDS011;6763;48.524;9.044;2023-05-20T05:14:37;3.30;;;2.30;;
13386;SDS011;6763;48.524;9.044;2023-05-20T05:17:03;5.82;;;2.75;;
13386;SDS011;6763;48.524;9.044;2023-05-20T05:19:28;4.93;;;2.78;;
13386;SDS011;6763;48.524;9.044;2023-05-20T05:21:53;4.57;;;3.00;;
13386;SDS011;6763;48.524;9.044;2023-05-20T05:24:19;4.70;;;2.88;;
13386;SDS011;6763;48.524;9.044;2023-05-20T05:26:44;4.70;;;2.58;;
13386;SDS011;6763;48.524;9.044;2023-05-20T05:29:10;3.45;;;2.30;;
13386;SDS011;6763;48.524;9.044;2023-05-20T05:31:35;3.85;;;2.60;;
13386;SDS011;6763;48.524;9.044;2023-05-20T05:34:00;3.65;;;2.50;;
13386;SDS011;6763;48.524;9.044;2023-05-20T05:36:26;5.00;;;2.70;;
13386;SDS011;6763;48.524;9.044;2023-05-20T05:38:51;7.38;;;3.15;;
13386;SDS011;6763;48.524;9.044;2023-05-20T05:41:16;5.82;;;2.75;;
13386;SDS011;6763;48.524;9.044;2023-05-20T05:43:42;5.13;;;2.67;;
13386;SDS011;6763;48.524;9.044;2023-05-20T05:46:07;3.53;;;2.40;;
13386;SDS011;6763;48.524;9.044;2023-05-20T05:48:33;4.80;;;2.35;;
13386;SDS011;6763;48.524;9.044;2023-05-20T05:51:00;3.20;;;2.40;;
13386;SDS011;6763;48.524;9.044;2023-05-20T05:53:25;3.72;;;2.78;;
13386;SDS011;6763;48.524;9.044;2023-05-20T05:55:50;6.15;;;2.88;;
13386;SDS011;6763;48.524;9.044;2023-05-20T05:58:16;2.97;;;2.30;;
13386;SDS011;6763;48.524;9.044;2023-05-20T06:00:41;3.25;;;2.65;;
13386;SDS011;6763;48.524;9.044;2023-05-20T06:03:06;3.15;;;2.25;;
13386;SDS011;6763;48.524;9.044;2023-05-20T06:05:32;4.78;;;2.95;;
13386;SDS011;6763;48.524;9.044;2023-05-20T06:07:57;3.72;;;2.30;;
13386;SDS011;6763;48.524;9.044;2023-05-20T06:10:22;2.45;;;1.95;;
13386;SDS011;6763;48.524;9.044;2023-05-20T06:12:48;4.82;;;2.70;;
13386;SDS011;6763;48.524;9.044;2023-05-20T06:15:13;2.50;;;2.00;;
13386;SDS011;6763;48.524;9.044;2023-05-20T06:17:39;2.55;;;2.05;;
13386;SDS011;6763;48.524;9.044;2023-05-20T06:20:04;1.92;;;1.67;;
13386;SDS011;6763;48.524;9.044;2023-05-20T06:22:30;2.10;;;1.90;;
13386;SDS011;6763;48.524;9.044;2023-05-20T06:24:55;3.35;;;1.92;;
13386;SDS011;6763;48.524;9.044;2023-05-20T06:27:24;1.83;;;1.70;;
13386;SDS011;6763;48.524;9.044;2023-05-20T06:29:49;2.88;;;1.88;;
13386;SDS011;6763;48.524;9.044;2023-05-20T06:32:14;1.95;;;1.80;;
13386;SDS011;6763;48.524;9.044;2023-05-20T06:34:40;2.22;;;1.48;;
13386;SDS011;6763;48.524;9.044;2023-05-20T06:37:05;2.70;;;1.90;;
13386;SDS011;6763;48.524;9.044;2023-05-20T06:39:30;2.03;;;1.83;;
13386;SDS011;6763;48.524;9.044;2023-05-20T06:41:56;2.42;;;1.50;;
13386;SDS011;6763;48.524;9.044;2023-05-20T06:44:21;3.67;;;1.90;;
13386;SDS011;6763;48.524;9.044;2023-05-20T06:46:46;2.63;;;2.13;;
13386;SDS011;6763;48.524;9.044;2023-05-20T06:49:12;1.70;;;1.58;;
13386;SDS011;6763;48.524;9.044;2023-05-20T06:51:37;2.05;;;1.92;;
13386;SDS011;6763;48.524;9.044;2023-05-20T06:54:02;1.80;;;1.70;;
13386;SDS011;6763;48.524;9.044;2023-05-20T06:56:28;1.80;;;1.55;;
13386;SDS011;6763;48.524;9.044;2023-05-20T06:58:53;2.00;;;1.80;;
13386;SDS011;6763;48.524;9.044;2023-05-20T07:01:19;4.30;;;2.00;;
13386;SDS011;6763;48.524;9.044;2023-05-20T07:03:44;1.85;;;1.70;;
13386;SDS011;6763;48.524;9.044;2023-05-20T07:06:09;3.17;;;1.80;;
13386;SDS011;6763;48.524;9.044;2023-05-20T07:08:35;1.77;;;1.63;;
13386;SDS011;6763;48.524;9.044;2023-05-20T07:11:00;2.13;;;1.92;;
13386;SDS011;6763;48.524;9.044;2023-05-20T07:13:25;2.83;;;1.80;;
13386;SDS011;6763;48.524;9.044;2023-05-20T07:15:51;3.42;;;2.00;;
13386;SDS011;6763;48.524;9.044;2023-05-20T07:18:16;2.72;;;1.83;;
13386;SDS011;6763;48.524;9.044;2023-05-20T07:20:42;1.63;;;1.50;;
13386;SDS011;6763;48.524;9.044;2023-05-20T07:23:08;2.05;;;1.80;;
13386;SDS011;6763;48.524;9.044;2023-05-20T07:25:33;2.05;;;1.67;;
13386;SDS011;6763;48.524;9.044;2023-05-20T07:27:59;4.50;;;1.80;;
13386;SDS011;6763;48.524;9.044;2023-05-20T07:30:24;1.80;;;1.70;;
13386;SDS011;6763;48.524;9.044;2023-05-20T07:32:50;2.10;;;1.85;;
13386;SDS011;6763;48.524;9.044;2023-05-20T07:35:16;2.08;;;1.83;;
13386;SDS011;6763;48.524;9.044;2023-05-20T07:37:41;1.73;;;1.60;;
13386;SDS011;6763;48.524;9.044;2023-05-20T07:40:07;2.10;;;1.90;;
13386;SDS011;6763;48.524;9.044;2023-05-20T07:42:33;2.13;;;1.95;;
13386;SDS011;6763;48.524;9.044;2023-05-20T07:44:59;2.72;;;2.25;;
13386;SDS011;6763;48.524;9.044;2023-05-20T07:47:24;2.40;;;2.00;;
13386;SDS011;6763;48.524;9.044;2023-05-20T07:49:49;3.53;;;2.00;;
13386;SDS011;6763;48.524;9.044;2023-05-20T07:52:15;2.47;;;2.05;;
13386;SDS011;6763;48.524;9.044;2023-05-20T07:54:40;3.78;;;2.00;;
13386;SDS011;6763;48.524;9.044;2023-05-20T07:57:06;2.53;;;2.33;;
13386;SDS011;6763;48.524;9.044;2023-05-20T07:59:31;2.17;;;1.90;;
13386;SDS011;6763;48.524;9.044;2023-05-20T08:01:56;2.35;;;2.00;;
13386;SDS011;6763;48.524;9.044;2023-05-20T08:04:22;4.97;;;2.40;;
13386;SDS011;6763;48.524;9.044;2023-05-20T08:06:47;2.85;;;2.08;;
13386;SDS011;6763;48.524;9.044;2023-05-20T08:09:13;2.60;;;2.28;;
13386;SDS011;6763;48.524;9.044;2023-05-20T08:11:39;3.15;;;2.22;;
13386;SDS011;6763;48.524;9.044;2023-05-20T08:14:04;3.05;;;2.10;;
13386;SDS011;6763;48.524;9.044;2023-05-20T08:16:30;2.60;;;1.92;;
13386;SDS011;6763;48.524;9.044;2023-05-20T08:18:55;3.03;;;2.17;;
13386;SDS011;6763;48.524;9.044;2023-05-20T08:21:20;2.13;;;1.90;;
13386;SDS011;6763;48.524;9.044;2023-05-20T08:23:46;2.15;;;1.95;;
13386;SDS011;6763;48.524;9.044;2023-05-20T08:26:11;2.08;;;1.85;;
13386;SDS011;6763;48.524;9.044;2023-05-20T08:28:37;2.13;;;1.70;;
13386;SDS011;6763;48.524;9.044;2023-05-20T08:31:03;3.60;;;2.35;;
13386;SDS011;6763;48.524;9.044;2023-05-20T08:33:28;3.15;;;1.80;;
13386;SDS011;6763;48.524;9.044;2023-05-20T08:35:54;2.20;;;1.92;;
13386;SDS011;6763;48.524;9.044;2023-05-20T08:38:19;2.15;;;1.95;;
13386;SDS011;6763;48.524;9.044;2023-05-20T08:40:44;2.03;;;1.60;;
13386;SDS011;6763;48.524;9.044;2023-05-20T08:43:10;2.45;;;2.00;;
13386;SDS011;6763;48.524;9.044;2023-05-20T08:45:36;2.70;;;2.40;;
13386;SDS011;6763;48.524;9.044;2023-05-20T08:48:02;2.47;;;2.08;;
13386;SDS011;6763;48.524;9.044;2023-05-20T08:50:31;2.42;;;1.83;;
13386;SDS011;6763;48.524;9.044;2023-05-20T08:52:57;2.30;;;1.95;;
13386;SDS011;6763;48.524;9.044;2023-05-20T08:55:24;2.28;;;2.08;;
13386;SDS011;6763;48.524;9.044;2023-05-20T08:58:06;4.00;;;1.77;;
13386;SDS011;6763;48.524;9.044;2023-05-20T09:00:31;3.13;;;1.58;;
13386;SDS011;6763;48.524;9.044;2023-05-20T09:02:57;1.77;;;1.65;;
13386;SDS011;6763;48.524;9.044;2023-05-20T09:05:24;2.17;;;1.98;;
13386;SDS011;6763;48.524;9.044;2023-05-20T09:07:51;1.85;;;1.60;;
13386;SDS011;6763;48.524;9.044;2023-05-20T09:10:16;2.15;;;1.95;;
13386;SDS011;6763;48.524;9.044;2023-05-20T09:12:42;1.88;;;1.67;;
13386;SDS011;6763;48.524;9.044;2023-05-20T09:15:08;3.08;;;2.10;;
13386;SDS011;6763;48.524;9.044;2023-05-20T09:17:34;6.75;;;1.98;;
13386;SDS011;6763;48.524;9.044;2023-05-20T09:20:00;2.20;;;1.92;;
13386;SDS011;6763;48.524;9.044;2023-05-20T09:22:26;4.47;;;1.90;;
13386;SDS011;6763;48.524;9.044;2023-05-20T09:24:53;2.72;;;2.28;;
13386;SDS011;6763;48.524;9.044;2023-05-20T09:27:19;3.28;;;1.70;;
13386;SDS011;6763;48.524;9.044;2023-05-20T09:29:49;3.30;;;2.47;;
13386;SDS011;6763;48.524;9.044;2023-05-20T09:32:15;4.60;;;2.13;;
13386;SDS011;6763;48.524;9.044;2023-05-20T09:34:41;2.40;;;2.10;;
13386;SDS011;6763;48.524;9.044;2023-05-20T09:37:09;2.63;;;1.80;;
13386;SDS011;6763;48.524;9.044;2023-05-20T09:39:58;2.63;;;1.80;;
13386;SDS011;6763;48.524;9.044;2023-05-20T09:42:25;2.45;;;1.95;;
13386;SDS011;6763;48.524;9.044;2023-05-20T09:44:53;2.28;;;1.65;;
13386;SDS011;6763;48.524;9.044;2023-05-20T09:47:19;4.60;;;2.50;;
13386;SDS011;6763;48.524;9.044;2023-05-20T09:49:45;2.53;;;2.15;;
13386;SDS011;6763;48.524;9.044;2023-05-20T09:52:11;3.00;;;1.90;;
13386;SDS011;6763;48.524;9.044;2023-05-20T09:54:39;2.58;;;2.13;;
13386;SDS011;6763;48.524;9.044;2023-05-20T09:57:06;2.25;;;2.05;;
13386;SDS011;6763;48.524;9.044;2023-05-20T09:59:31;2.78;;;2.05;;
13386;SDS011;6763;48.524;9.044;2023-05-20T10:01:59;3.65;;;1.80;;
13386;SDS011;6763;48.524;9.044;2023-05-20T10:04:25;4.10;;;2.35;;
13386;SDS011;6763;48.524;9.044;2023-05-20T10:12:07;2.95;;;2.10;;
13386;SDS011;6763;48.524;9.044;2023-05-20T10:20:28;4.20;;;1.90;;
13386;SDS011;6763;48.524;9.044;2023-05-20T10:22:56;2.17;;;1.85;;
13386;SDS011;6763;48.524;9.044;2023-05-20T10:25:27;3.35;;;1.80;;
13386;SDS011;6763;48.524;9.044;2023-05-20T10:28:03;2.53;;;1.80;;
13386;SDS011;6763;48.524;9.044;2023-05-20T10:30:32;2.40;;;2.20;;
13386;SDS011;6763;48.524;9.044;2023-05-20T10:33:01;2.17;;;1.95;;
13386;SDS011;6763;48.524;9.044;2023-05-20T10:35:29;2.05;;;1.85;;
13386;SDS011;6763;48.524;9.044;2023-05-20T10:38:05;2.30;;;2.08;;
13386;SDS011;6763;48.524;9.044;2023-05-20T10:40:32;2.35;;;2.10;;
13386;SDS011;6763;48.524;9.044;2023-05-20T10:43:07;2.25;;;2.05;;
13386;SDS011;6763;48.524;9.044;2023-05-20T10:45:33;2.65;;;1.92;;
13386;SDS011;6763;48.524;9.044;2023-05-20T10:48:01;2.00;;;1.88;;
13386;SDS011;6763;48.524;9.044;2023-05-20T10:53:03;2.30;;;1.75;;
13386;SDS011;6763;48.524;9.044;2023-05-20T10:55:36;2.47;;;1.95;;
13386;SDS011;6763;48.524;9.044;2023-05-20T10:58:03;1.88;;;1.65;;
13386;SDS011;6763;48.524;9.044;2023-05-20T11:00:30;2.67;;;1.95;;
13386;SDS011;6763;48.524;9.044;2023-05-20T11:02:56;2.28;;;2.08;;
13386;SDS011;6763;48.524;9.044;2023-05-20T11:05:21;1.80;;;1.63;;
13386;SDS011;6763;48.524;9.044;2023-05-20T11:07:47;1.92;;;1.70;;
13386;SDS011;6763;48.524;9.044;2023-05-20T11:10:13;2.10;;;1.90;;
13386;SDS011;6763;48.524;9.044;2023-05-20T11:12:38;1.88;;;1.65;;
13386;SDS011;6763;48.524;9.044;2023-05-20T11:15:04;2.20;;;1.70;;
13386;SDS011;6763;48.524;9.044;2023-05-20T11:17:29;2.85;;;1.90;;
13386;SDS011;6763;48.524;9.044;2023-05-20T11:19:55;2.00;;;1.80;;
13386;SDS011;6763;48.524;9.044;2023-05-20T11:22:24;2.05;;;1.83;;
13386;SDS011;6763;48.524;9.044;2023-05-20T11:24:50;1.83;;;1.52;;
13386;SDS011;6763;48.524;9.044;2023-05-20T11:27:15;3.88;;;2.17;;
13386;SDS011;6763;48.524;9.044;2023-05-20T11:29:40;1.95;;;1.75;;
13386;SDS011;6763;48.524;9.044;2023-05-20T11:32:06;1.75;;;1.63;;
13386;SDS011;6763;48.524;9.044;2023-05-20T11:34:33;2.67;;;2.00;;
13386;SDS011;6763;48.524;9.044;2023-05-20T11:36:59;2.38;;;1.90;;
13386;SDS011;6763;48.524;9.044;2023-05-20T11:39:24;2.22;;;1.95;;
13386;SDS011;6763;48.524;9.044;2023-05-20T11:41:53;1.58;;;1.42;;
13386;SDS011;6763;48.524;9.044;2023-05-20T11:44:19;2.53;;;1.52;;
13386;SDS011;6763;48.524;9.044;2023-05-20T11:46:45;2.05;;;1.83;;
13386;SDS011;6763;48.524;9.044;2023-05-20T11:49:11;4.25;;;2.00;;
13386;SDS011;6763;48.524;9.044;2023-05-20T11:51:37;1.70;;;1.60;;
13386;SDS011;6763;48.524;9.044;2023-05-20T11:54:04;1.60;;;1.45;;
13386;SDS011;6763;48.524;9.044;2023-05-20T11:56:34;2.10;;;1.50;;
13386;SDS011;6763;48.524;9.044;2023-05-20T11:59:01;1.85;;;1.50;;
13386;SDS011;6763;48.524;9.044;2023-05-20T12:01:31;1.60;;;1.50;;
13386;SDS011;6763;48.524;9.044;2023-05-20T12:03:58;2.85;;;1.77;;
13386;SDS011;6763;48.524;9.044;2023-05-20T12:06:23;3.08;;;1.50;;
13386;SDS011;6763;48.524;9.044;2023-05-20T12:08:49;2.30;;;1.90;;
13386;SDS011;6763;48.524;9.044;2023-05-20T12:11:14;1.70;;;1.60;;
13386;SDS011;6763;48.524;9.044;2023-05-20T12:13:39;2.05;;;1.83;;
13386;SDS011;6763;48.524;9.044;2023-05-20T12:16:05;3.60;;;1.63;;
13386;SDS011;6763;48.524;9.044;2023-05-20T12:18:31;1.50;;;1.40;;
13386;SDS011;6763;48.524;9.044;2023-05-20T12:20:57;2.33;;;1.85;;
13386;SDS011;6763;48.524;9.044;2023-05-20T12:23:23;2.10;;;1.65;;
13386;SDS011;6763;48.524;9.044;2023-05-20T12:25:48;2.20;;;1.70;;
13386;SDS011;6763;48.524;9.044;2023-05-20T12:28:14;2.17;;;1.60;;
13386;SDS011;6763;48.524;9.044;2023-05-20T12:30:41;2.17;;;1.60;;
13386;SDS011;6763;48.524;9.044;2023-05-20T12:33:06;1.98;;;1.77;;
13386;SDS011;6763;48.524;9.044;2023-05-20T12:35:39;2.05;;;1.60;;
13386;SDS011;6763;48.524;9.044;2023-05-20T12:38:05;3.35;;;1.42;;
13386;SDS011;6763;48.524;9.044;2023-05-20T12:40:31;2.60;;;1.65;;
13386;SDS011;6763;48.524;9.044;2023-05-20T12:42:59;1.50;;;1.40;;
13386;SDS011;6763;48.524;9.044;2023-05-20T12:45:25;2.67;;;1.75;;
13386;SDS011;6763;48.524;9.044;2023-05-20T12:47:50;1.58;;;1.45;;
13386;SDS011;6763;48.524;9.044;2023-05-20T12:50:15;2.05;;;1.60;;
13386;SDS011;6763;48.524;9.044;2023-05-20T12:52:41;1.95;;;1.80;;
13386;SDS011;6763;48.524;9.044;2023-05-20T12:55:06;1.92;;;1.50;;
13386;SDS011;6763;48.524;9.044;2023-05-20T12:57:41;1.92;;;1.52;;
13386;SDS011;6763;48.524;9.044;2023-05-20T13:00:08;2.03;;;1.70;;
13386;SDS011;6763;48.524;9.044;2023-05-20T13:02:35;1.77;;;1.50;;
13386;SDS011;6763;48.524;9.044;2023-05-20T13:05:01;1.98;;;1.65;;
13386;SDS011;6763;48.524;9.044;2023-05-20T13:07:26;1.60;;;1.50;;
13386;SDS011;6763;48.524;9.044;2023-05-20T13:09:52;1.80;;;1.70;;
13386;SDS011;6763;48.524;9.044;2023-05-20T13:12:17;3.72;;;1.67;;
13386;SDS011;6763;48.524;9.044;2023-05-20T13:14:43;2.08;;;1.70;;
13386;SDS011;6763;48.524;9.044;2023-05-20T13:17:10;1.67;;;1.58;;
13386;SDS011;6763;48.524;9.044;2023-05-20T13:19:35;2.33;;;1.40;;
13386;SDS011;6763;48.524;9.044;2023-05-20T13:22:02;1.40;;;1.30;;
13386;SDS011;6763;48.524;9.044;2023-05-20T13:24:27;5.07;;;1.70;;
13386;SDS011;6763;48.524;9.044;2023-05-20T13:26:52;2.95;;;1.50;;
13386;SDS011;6763;48.524;9.044;2023-05-20T13:29:18;2.13;;;1.52;;
13386;SDS011;6763;48.524;9.044;2023-05-20T13:31:43;2.63;;;1.95;;
13386;SDS011;6763;48.524;9.044;2023-05-20T13:34:08;3.15;;;1.85;;
13386;SDS011;6763;48.524;9.044;2023-05-20T13:36:34;2.03;;;1.70;;
13386;SDS011;6763;48.524;9.044;2023-05-20T13:38:59;1.98;;;1.80;;
13386;SDS011;6763;48.524;9.044;2023-05-20T13:41:24;1.70;;;1.60;;
13386;SDS011;6763;48.524;9.044;2023-05-20T13:43:54;1.73;;;1.58;;
13386;SDS011;6763;48.524;9.044;2023-05-20T13:46:19;1.60;;;1.50;;
13386;SDS011;6763;48.524;9.044;2023-05-20T13:48:46;2.30;;;1.60;;
13386;SDS011;6763;48.524;9.044;2023-05-20T13:51:11;2.05;;;1.60;;
13386;SDS011;6763;48.524;9.044;2023-05-20T13:53:37;1.60;;;1.35;;
13386;SDS011;6763;48.524;9.044;2023-05-20T13:56:03;1.67;;;1.58;;
13386;SDS011;6763;48.524;9.044;2023-05-20T13:58:29;2.03;;;1.83;;
13386;SDS011;6763;48.524;9.044;2023-05-20T14:00:54;2.20;;;1.58;;
13386;SDS011;6763;48.524;9.044;2023-05-20T14:03:20;1.98;;;1.60;;
13386;SDS011;6763;48.524;9.044;2023-05-20T14:05:45;1.60;;;1.50;;
13386;SDS011;6763;48.524;9.044;2023-05-20T14:08:11;3.05;;;1.95;;
13386;SDS011;6763;48.524;9.044;2023-05-20T14:10:36;1.60;;;1.50;;
13386;SDS011;6763;48.524;9.044;2023-05-20T14:13:02;2.45;;;1.70;;
13386;SDS011;6763;48.524;9.044;2023-05-20T14:15:27;2.08;;;1.67;;
13386;SDS011;6763;48.524;9.044;2023-05-20T14:17:56;2.30;;;1.55;;
13386;SDS011;6763;48.524;9.044;2023-05-20T14:20:22;2.45;;;1.70;;
13386;SDS011;6763;48.524;9.044;2023-05-20T14:22:48;2.20;;;1.60;;
13386;SDS011;6763;48.524;9.044;2023-05-20T14:25:14;1.70;;;1.50;;
13386;SDS011;6763;48.524;9.044;2023-05-20T14:27:39;2.38;;;1.50;;
13386;SDS011;6763;48.524;9.044;2023-05-20T14:30:05;1.60;;;1.50;;
13386;SDS011;6763;48.524;9.044;2023-05-20T14:32:31;1.33;;;1.23;;
13386;SDS011;6763;48.524;9.044;2023-05-20T14:34:56;2.22;;;1.58;;
13386;SDS011;6763;48.524;9.044;2023-05-20T14:37:21;1.63;;;1.50;;
13386;SDS011;6763;48.524;9.044;2023-05-20T14:39:47;2.05;;;1.60;;
13386;SDS011;6763;48.524;9.044;2023-05-20T14:42:12;1.58;;;1.25;;
13386;SDS011;6763;48.524;9.044;2023-05-20T14:44:37;1.75;;;1.40;;
13386;SDS011;6763;48.524;9.044;2023-05-20T14:47:03;2.03;;;1.63;;
13386;SDS011;6763;48.524;9.044;2023-05-20T14:49:29;1.40;;;1.13;;
13386;SDS011;6763;48.524;9.044;2023-05-20T14:51:55;1.30;;;1.20;;
13386;SDS011;6763;48.524;9.044;2023-05-20T14:54:20;1.67;;;1.30;;
13386;SDS011;6763;48.524;9.044;2023-05-20T14:56:49;1.55;;;1.38;;
13386;SDS011;6763;48.524;9.044;2023-05-20T14:59:15;2.03;;;1.48;;
13386;SDS011;6763;48.524;9.044;2023-05-20T15:01:41;1.30;;;1.10;;
13386;SDS011;6763;48.524;9.044;2023-05-20T15:04:06;1.50;;;1.30;;
13386;SDS011;6763;48.524;9.044;2023-05-20T15:06:32;1.88;;;1.40;;
13386;SDS011;6763;48.524;9.044;2023-05-20T15:08:59;1.52;;;1.40;;